Time;durP1;ratioP1;P1;durP2;ratioP2;P2;SDS_P1;SDS_P2;PMS_P1;PMS_P2;Temp;Humidity;BMP_temperature;BMP_pressure;BME280_temperature;BME280_humidity;BME280_pressure;Samples;Min_cycle;Max_cycle;Signal;HPM_P1;HPM_P2
2022/10/22 00:01:19;;;;;;;0.70;0.70;;;5.00;99.90;;;;;;5054512;28;20196;-73
2022/10/22 00:03:45;;;;;;;0.70;0.70;;;5.00;99.90;;;;;;5053965;28;20212;-71
2022/10/22 00:06:11;;;;;;;0.65;0.65;;;4.90;99.90;;;;;;5052349;28;20620;-71
2022/10/22 00:08:36;;;;;;;0.63;0.63;;;5.00;99.90;;;;;;5054191;28;20290;-72
2022/10/22 00:11:14;;;;;;;0.70;0.70;;;5.00;99.90;;;;;;5053074;28;20352;-71
2022/10/22 00:13:40;;;;;;;0.50;0.50;;;4.90;99.90;;;;;;5051779;28;20217;-71
2022/10/22 00:16:06;;;;;;;0.70;0.70;;;4.90;99.90;;;;;;5054193;28;20193;-73
2022/10/22 00:18:32;;;;;;;0.50;0.50;;;4.90;99.90;;;;;;5053842;28;20186;-71
2022/10/22 00:20:58;;;;;;;1.42;1.33;;;4.90;99.90;;;;;;5053886;28;20205;-72
2022/10/22 00:23:24;;;;;;;0.70;0.70;;;4.80;99.90;;;;;;5053876;28;20557;-72
2022/10/22 00:25:49;;;;;;;3.80;2.10;;;4.90;99.90;;;;;;5053686;28;20197;-73
2022/10/22 00:28:15;;;;;;;0.60;0.60;;;4.90;99.90;;;;;;5051702;28;20568;-71
2022/10/22 00:30:40;;;;;;;0.70;0.70;;;4.90;99.90;;;;;;5052295;28;20619;-71
2022/10/22 00:33:06;;;;;;;0.55;0.55;;;4.90;99.90;;;;;;5053436;28;20549;-72
2022/10/22 00:35:32;;;;;;;0.70;0.70;;;4.90;99.90;;;;;;5053035;28;20201;-71
2022/10/22 00:37:57;;;;;;;0.63;0.63;;;4.90;99.90;;;;;;5053741;28;20197;-72
2022/10/22 00:40:23;;;;;;;0.68;0.68;;;5.00;99.90;;;;;;5051482;28;20221;-73
2022/10/22 00:42:49;;;;;;;0.60;0.60;;;5.00;99.90;;;;;;5052310;28;20198;-72
2022/10/22 00:45:19;;;;;;;0.70;0.70;;;5.00;99.90;;;;;;5051548;28;20205;-71
2022/10/22 00:48:00;;;;;;;0.63;0.63;;;5.00;99.90;;;;;;5052044;28;20201;-71
2022/10/22 00:50:34;;;;;;;0.60;0.60;;;5.00;99.90;;;;;;5053372;28;20201;-71
2022/10/22 00:53:02;;;;;;;0.70;0.70;;;5.10;99.90;;;;;;5053200;28;20580;-72
2022/10/22 00:55:29;;;;;;;0.52;0.52;;;5.10;99.90;;;;;;5053280;28;20189;-72
2022/10/22 00:57:57;;;;;;;0.70;0.70;;;5.10;99.90;;;;;;5053373;28;20189;-71
2022/10/22 01:00:23;;;;;;;0.63;0.63;;;5.10;99.90;;;;;;5050774;28;20285;-72
2022/10/22 01:02:51;;;;;;;0.60;0.60;;;5.00;99.90;;;;;;5053261;28;20656;-71
2022/10/22 01:05:17;;;;;;;0.50;0.50;;;5.00;99.90;;;;;;5053456;28;20679;-71
2022/10/22 01:07:51;;;;;;;0.70;0.70;;;5.00;99.90;;;;;;5053320;28;20213;-71
2022/10/22 01:10:37;;;;;;;0.60;0.60;;;5.00;99.90;;;;;;5053590;28;20277;-71
2022/10/22 01:13:16;;;;;;;14.05;4.00;;;5.00;99.90;;;;;;5051566;28;20221;-71
2022/10/22 01:15:59;;;;;;;0.70;0.70;;;5.00;99.90;;;;;;5050742;28;20197;-72
2022/10/22 01:18:56;;;;;;;0.60;0.60;;;5.00;99.90;;;;;;5032667;28;20212;-71
2022/10/22 01:21:29;;;;;;;0.75;0.75;;;5.00;99.90;;;;;;5032819;28;20201;-72
2022/10/22 01:24:13;;;;;;;0.60;0.60;;;5.00;99.90;;;;;;5032938;28;20201;-72
2022/10/22 01:27:06;;;;;;;0.60;0.60;;;5.00;99.90;;;;;;5032771;28;20675;-73
2022/10/22 01:29:51;;;;;;;0.60;0.60;;;5.00;99.90;;;;;;5044515;28;20197;-71
2022/10/22 01:32:21;;;;;;;0.70;0.70;;;5.00;99.90;;;;;;5052913;28;20668;-73
2022/10/22 01:35:00;;;;;;;0.50;0.50;;;5.00;99.90;;;;;;5051621;28;20201;-73
2022/10/22 01:37:30;;;;;;;0.50;0.50;;;5.00;99.90;;;;;;5051068;28;20259;-73
2022/10/22 01:39:58;;;;;;;0.63;0.63;;;4.90;99.90;;;;;;5052659;28;20221;-72
2022/10/22 01:42:24;;;;;;;0.50;0.50;;;5.00;99.90;;;;;;5051384;28;20193;-72
2022/10/22 01:44:50;;;;;;;0.50;0.50;;;4.90;99.90;;;;;;5044600;28;20208;-71
2022/10/22 01:47:52;;;;;;;0.50;0.50;;;5.00;99.90;;;;;;5051703;28;20194;-71
2022/10/22 01:50:48;;;;;;;0.50;0.50;;;5.00;99.90;;;;;;5052732;28;20193;-72
2022/10/22 01:53:33;;;;;;;0.60;0.60;;;5.00;99.90;;;;;;5052560;28;20614;-71
2022/10/22 01:56:24;;;;;;;0.60;0.60;;;5.00;99.90;;;;;;5051294;28;20201;-72
2022/10/22 01:59:05;;;;;;;0.60;0.60;;;5.00;99.90;;;;;;5051989;28;20189;-71
2022/10/22 02:01:38;;;;;;;0.60;0.60;;;5.00;99.90;;;;;;5041949;28;20200;-71
2022/10/22 02:04:07;;;;;;;0.60;0.60;;;5.00;99.90;;;;;;5051148;28;20209;-71
2022/10/22 02:06:35;;;;;;;0.60;0.60;;;5.00;99.90;;;;;;5051797;28;20627;-71
2022/10/22 02:09:02;;;;;;;12.15;2.35;;;5.00;99.90;;;;;;5052504;28;20280;-72
2022/10/22 02:11:28;;;;;;;0.82;0.82;;;5.00;99.90;;;;;;5051759;28;20232;-71
2022/10/22 02:13:58;;;;;;;0.98;0.98;;;5.00;99.90;;;;;;5050961;28;20233;-73
2022/10/22 02:16:30;;;;;;;0.68;0.68;;;5.00;99.90;;;;;;5053653;28;20727;-72
2022/10/22 02:19:00;;;;;;;0.50;0.50;;;5.00;99.90;;;;;;5056635;28;20193;-71
2022/10/22 02:21:26;;;;;;;0.52;0.52;;;5.00;99.90;;;;;;5056020;28;20193;-71
2022/10/22 02:23:52;;;;;;;0.50;0.50;;;5.00;99.90;;;;;;5056312;28;20239;-71
2022/10/22 02:26:49;;;;;;;0.60;0.60;;;5.00;99.90;;;;;;5054825;28;20281;-71
2022/10/22 02:29:24;;;;;;;0.50;0.50;;;5.00;99.90;;;;;;5054515;28;20680;-72
2022/10/22 02:31:54;;;;;;;0.50;0.50;;;4.90;99.90;;;;;;5055968;28;20227;-72
2022/10/22 02:34:26;;;;;;;0.70;0.70;;;4.90;99.90;;;;;;5055695;28;20350;-72
2022/10/22 02:36:53;;;;;;;0.60;0.60;;;4.90;99.90;;;;;;5055897;28;20252;-71
2022/10/22 02:39:20;;;;;;;0.60;0.60;;;4.90;99.90;;;;;;5054578;28;20197;-73
2022/10/22 02:41:46;;;;;;;0.50;0.50;;;4.90;99.90;;;;;;5054655;28;20197;-71
2022/10/22 02:44:12;;;;;;;0.80;0.80;;;4.90;99.90;;;;;;5043290;28;20649;-73
2022/10/22 02:46:39;;;;;;;0.77;0.77;;;4.90;99.90;;;;;;5054950;28;20213;-71
2022/10/22 02:49:05;;;;;;;0.60;0.60;;;4.90;99.90;;;;;;5055855;28;20221;-70
2022/10/22 02:51:31;;;;;;;0.70;0.70;;;4.90;99.90;;;;;;5055609;28;20292;-70
2022/10/22 02:53:56;;;;;;;0.50;0.50;;;4.90;99.90;;;;;;5055417;28;20400;-72
2022/10/22 02:56:22;;;;;;;0.40;0.40;;;4.90;99.90;;;;;;5055610;28;20193;-72
2022/10/22 02:58:48;;;;;;;0.60;0.60;;;4.90;99.90;;;;;;5054338;28;20201;-71
2022/10/22 03:01:13;;;;;;;0.55;0.55;;;4.90;99.90;;;;;;5052987;28;20201;-73
2022/10/22 03:03:39;;;;;;;0.60;0.60;;;4.80;99.90;;;;;;5063410;28;20196;-71
2022/10/22 03:06:05;;;;;;;0.60;0.60;;;4.90;99.90;;;;;;5075602;28;20200;-71
2022/10/22 03:08:30;;;;;;;0.50;0.50;;;4.90;99.90;;;;;;5073648;28;20262;-71
2022/10/22 03:10:56;;;;;;;0.60;0.60;;;4.90;99.90;;;;;;5053921;28;20237;-71
2022/10/22 03:13:21;;;;;;;0.63;0.63;;;4.90;99.90;;;;;;5055262;28;20237;-71
2022/10/22 03:15:49;;;;;;;0.60;0.60;;;4.90;99.90;;;;;;5053182;28;20675;-70
2022/10/22 03:18:15;;;;;;;0.52;0.52;;;4.90;99.90;;;;;;5055027;28;20198;-71
2022/10/22 03:20:40;;;;;;;0.60;0.60;;;4.90;99.90;;;;;;5053784;28;20621;-71
2022/10/22 03:23:06;;;;;;;0.47;0.47;;;4.90;99.90;;;;;;5055240;28;20276;-71
2022/10/22 03:25:33;;;;;;;0.50;0.50;;;5.00;99.90;;;;;;5053179;28;20205;-72
2022/10/22 03:28:03;;;;;;;0.70;0.70;;;4.90;99.90;;;;;;5055231;28;20196;-72
2022/10/22 03:30:29;;;;;;;0.70;0.70;;;4.90;99.90;;;;;;5053848;28;20294;-72
2022/10/22 03:32:55;;;;;;;0.57;0.57;;;4.90;99.90;;;;;;5053491;28;20253;-72
2022/10/22 03:35:20;;;;;;;0.63;0.63;;;4.90;99.90;;;;;;5054652;28;20190;-71
2022/10/22 03:37:46;;;;;;;0.70;0.70;;;5.00;99.90;;;;;;5054897;28;20193;-71
2022/10/22 03:40:12;;;;;;;1.55;1.45;;;5.00;99.90;;;;;;5052487;28;20687;-72
2022/10/22 03:42:40;;;;;;;0.60;0.60;;;4.90;99.90;;;;;;5053732;28;20478;-71
2022/10/22 03:45:07;;;;;;;0.70;0.70;;;4.90;99.90;;;;;;5053809;28;21426;-73
2022/10/22 03:47:33;;;;;;;0.70;0.70;;;5.00;99.90;;;;;;5054277;28;20197;-70
2022/10/22 03:49:59;;;;;;;0.50;0.50;;;4.90;99.90;;;;;;5052910;28;20205;-71
2022/10/22 03:52:24;;;;;;;0.70;0.70;;;5.00;99.90;;;;;;5054262;28;20654;-71
2022/10/22 03:54:50;;;;;;;0.55;0.55;;;5.00;99.90;;;;;;5054624;28;20186;-70
2022/10/22 03:57:15;;;;;;;0.68;0.68;;;4.90;99.90;;;;;;5054330;28;20194;-71
2022/10/22 03:59:43;;;;;;;0.60;0.60;;;5.00;99.90;;;;;;5054403;28;20233;-71
2022/10/22 04:02:10;;;;;;;0.47;0.47;;;4.90;99.90;;;;;;5053574;28;20533;-71
2022/10/22 04:04:36;;;;;;;0.70;0.70;;;4.90;99.90;;;;;;5052940;28;20233;-71
2022/10/22 04:07:02;;;;;;;0.70;0.70;;;4.90;99.90;;;;;;5054414;28;20201;-72
2022/10/22 04:09:31;;;;;;;0.80;0.80;;;4.90;99.90;;;;;;5054221;28;20703;-72
2022/10/22 04:11:57;;;;;;;0.70;0.70;;;4.90;99.90;;;;;;5052900;28;20201;-72
2022/10/22 04:14:23;;;;;;;1.17;1.08;;;4.90;99.90;;;;;;5052836;28;20239;-72
2022/10/22 04:16:48;;;;;;;0.70;0.70;;;4.90;99.90;;;;;;5052790;28;20565;-71
2022/10/22 04:19:17;;;;;;;0.50;0.50;;;5.00;99.90;;;;;;5053808;28;20182;-71
2022/10/22 04:21:43;;;;;;;0.52;0.52;;;4.90;99.90;;;;;;5052586;28;20284;-71
2022/10/22 04:24:09;;;;;;;0.90;0.90;;;4.90;99.90;;;;;;5052698;28;20857;-73
2022/10/22 04:26:35;;;;;;;0.60;0.60;;;4.90;99.90;;;;;;5052276;28;20277;-71
2022/10/22 04:29:00;;;;;;;0.70;0.70;;;4.90;99.90;;;;;;5052809;28;20288;-71
2022/10/22 04:31:26;;;;;;;0.57;0.57;;;4.90;99.90;;;;;;5053228;28;20194;-71
2022/10/22 04:33:54;;;;;;;0.50;0.50;;;4.90;99.90;;;;;;5053702;28;20216;-73
2022/10/22 04:36:20;;;;;;;0.60;0.60;;;4.90;99.90;;;;;;5053539;28;20279;-72
2022/10/22 04:38:50;;;;;;;0.50;0.50;;;4.90;99.90;;;;;;5051725;28;20555;-71
2022/10/22 04:41:19;;;;;;;0.60;0.60;;;4.90;99.90;;;;;;5053144;28;20225;-71
2022/10/22 04:43:46;;;;;;;0.50;0.50;;;4.90;99.90;;;;;;5053536;28;20200;-71
2022/10/22 04:46:14;;;;;;;0.50;0.50;;;4.90;99.90;;;;;;5052816;28;20201;-71
2022/10/22 04:48:41;;;;;;;0.50;0.50;;;4.90;99.90;;;;;;5053128;28;20630;-71
2022/10/22 04:51:09;;;;;;;0.60;0.60;;;5.00;99.90;;;;;;5051974;28;20197;-70
2022/10/22 04:53:35;;;;;;;0.60;0.60;;;5.00;99.90;;;;;;5052001;28;20221;-70
2022/10/22 04:56:20;;;;;;;0.50;0.50;;;5.00;99.90;;;;;;5053158;28;20212;-71
2022/10/22 04:58:48;;;;;;;0.50;0.50;;;5.00;99.90;;;;;;5053401;28;20652;-71
2022/10/22 05:01:24;;;;;;;0.70;0.70;;;5.00;99.90;;;;;;5052052;28;20197;-71
2022/10/22 05:03:52;;;;;;;0.60;0.60;;;5.10;99.90;;;;;;5053645;28;20671;-70
2022/10/22 05:06:19;;;;;;;2.13;1.98;;;5.10;99.90;;;;;;5052073;28;20201;-70
2022/10/22 05:08:45;;;;;;;4.03;2.30;;;5.10;99.90;;;;;;5053221;28;20302;-71
2022/10/22 05:11:17;;;;;;;0.75;0.75;;;5.00;99.90;;;;;;5051448;28;20205;-71
2022/10/22 05:13:43;;;;;;;2.83;2.38;;;5.10;99.90;;;;;;5052355;28;20266;-71
2022/10/22 05:16:09;;;;;;;5.18;1.45;;;5.10;99.90;;;;;;5052173;28;20209;-71
2022/10/22 05:18:40;;;;;;;0.52;0.52;;;5.10;99.90;;;;;;5052896;28;20200;-72
2022/10/22 05:21:17;;;;;;;0.70;0.70;;;5.10;99.90;;;;;;5052806;28;20676;-72
2022/10/22 05:23:45;;;;;;;0.60;0.60;;;5.10;99.90;;;;;;5052511;28;20200;-71
2022/10/22 05:26:12;;;;;;;0.88;0.88;;;5.10;99.90;;;;;;5052694;28;20197;-71
2022/10/22 05:28:39;;;;;;;3.90;2.55;;;5.10;99.90;;;;;;5052482;28;20656;-71
2022/10/22 05:31:05;;;;;;;0.90;0.90;;;5.10;99.90;;;;;;5051681;28;20613;-70
2022/10/22 05:33:32;;;;;;;1.40;1.30;;;5.10;99.90;;;;;;5051074;28;20753;-69
2022/10/22 05:35:58;;;;;;;1.63;1.52;;;5.20;99.90;;;;;;5051049;28;20896;-71
2022/10/22 05:38:25;;;;;;;1.08;1.02;;;5.20;99.90;;;;;;5051407;28;20288;-71
2022/10/22 05:41:05;;;;;;;0.73;0.73;;;5.20;99.90;;;;;;5052458;28;20704;-71
2022/10/22 05:43:31;;;;;;;0.60;0.60;;;5.20;99.90;;;;;;5051756;28;20619;-71
2022/10/22 05:46:02;;;;;;;0.68;0.68;;;5.20;99.90;;;;;;5050706;28;20251;-72
2022/10/22 05:48:27;;;;;;;0.57;0.57;;;5.20;99.90;;;;;;5052692;28;20244;-71
2022/10/22 05:50:53;;;;;;;0.40;0.40;;;5.20;99.90;;;;;;5056684;28;20559;-71
2022/10/22 05:53:19;;;;;;;0.55;0.55;;;5.20;99.90;;;;;;5056301;28;20741;-71
2022/10/22 05:55:45;;;;;;;0.60;0.60;;;5.20;99.90;;;;;;5055345;28;20208;-71
2022/10/22 05:58:14;;;;;;;0.43;0.43;;;5.20;99.90;;;;;;5056332;28;20642;-70
2022/10/22 06:00:39;;;;;;;0.80;0.80;;;5.20;99.90;;;;;;5056421;28;20575;-72
2022/10/22 06:03:05;;;;;;;0.60;0.60;;;5.20;99.90;;;;;;5054045;28;20288;-70
2022/10/22 06:05:35;;;;;;;0.50;0.50;;;5.20;99.90;;;;;;5056292;28;20237;-71
2022/10/22 06:08:01;;;;;;;1.88;1.45;;;5.20;99.90;;;;;;5055270;28;20209;-71
2022/10/22 06:10:27;;;;;;;0.50;0.50;;;5.20;99.90;;;;;;5056437;28;20201;-71
2022/10/22 06:12:53;;;;;;;0.60;0.60;;;5.20;99.90;;;;;;5056246;28;20232;-72
2022/10/22 06:15:19;;;;;;;0.77;0.77;;;5.20;99.90;;;;;;5055299;28;20193;-72
2022/10/22 06:17:47;;;;;;;0.70;0.70;;;5.20;99.90;;;;;;5054158;28;20194;-71
2022/10/22 06:20:14;;;;;;;0.60;0.60;;;5.30;99.90;;;;;;5056381;28;20286;-72
2022/10/22 06:22:40;;;;;;;0.70;0.70;;;5.20;99.90;;;;;;5056593;28;20247;-72
2022/10/22 06:25:07;;;;;;;0.70;0.70;;;5.20;99.90;;;;;;5056392;28;20190;-71
2022/10/22 06:27:33;;;;;;;0.50;0.50;;;5.30;99.90;;;;;;5054682;28;20205;-71
2022/10/22 06:29:59;;;;;;;0.60;0.60;;;5.30;99.90;;;;;;5056280;28;20197;-71
2022/10/22 06:32:25;;;;;;;0.60;0.60;;;5.30;99.90;;;;;;5055081;28;20558;-71
2022/10/22 06:34:51;;;;;;;0.70;0.70;;;5.30;99.90;;;;;;5055865;28;20196;-72
2022/10/22 06:37:16;;;;;;;0.60;0.60;;;5.30;99.90;;;;;;5055818;28;20221;-71
2022/10/22 06:39:42;;;;;;;0.60;0.60;;;5.30;99.90;;;;;;5055653;28;21836;-71
2022/10/22 06:42:08;;;;;;;0.60;0.60;;;5.30;99.90;;;;;;5055598;28;20537;-72
2022/10/22 06:44:33;;;;;;;0.68;0.68;;;5.40;99.90;;;;;;5054794;28;20211;-71
2022/10/22 06:46:59;;;;;;;0.68;0.68;;;5.40;99.90;;;;;;5055116;28;20617;-71
2022/10/22 06:49:25;;;;;;;0.60;0.60;;;5.40;99.90;;;;;;5054425;28;20197;-71
2022/10/22 06:51:52;;;;;;;0.60;0.60;;;5.40;99.90;;;;;;5055694;28;20190;-70
2022/10/22 06:54:22;;;;;;;0.70;0.70;;;5.40;99.90;;;;;;5055515;28;20205;-72
2022/10/22 06:56:47;;;;;;;0.55;0.55;;;5.40;99.90;;;;;;5055748;28;20560;-71
2022/10/22 06:59:13;;;;;;;0.57;0.57;;;5.40;99.90;;;;;;5055583;28;20197;-71
2022/10/22 07:01:39;;;;;;;0.57;0.57;;;5.40;99.90;;;;;;5053813;28;20193;-72
2022/10/22 07:04:05;;;;;;;0.70;0.70;;;5.40;99.90;;;;;;5055875;28;20221;-70
2022/10/22 07:06:31;;;;;;;0.70;0.70;;;5.40;99.90;;;;;;5055191;28;20268;-71
2022/10/22 07:08:59;;;;;;;0.60;0.60;;;5.40;99.90;;;;;;5054428;28;20689;-71
2022/10/22 07:11:27;;;;;;;0.50;0.50;;;5.40;99.90;;;;;;5054706;28;20197;-71
2022/10/22 07:13:55;;;;;;;0.63;0.63;;;5.50;99.90;;;;;;5054272;28;20710;-71
2022/10/22 07:16:21;;;;;;;0.60;0.60;;;5.40;99.90;;;;;;5055240;28;20725;-71
2022/10/22 07:18:47;;;;;;;0.60;0.60;;;5.50;99.90;;;;;;5053154;28;20230;-70
2022/10/22 07:21:15;;;;;;;0.70;0.70;;;5.50;99.90;;;;;;5053868;28;20198;-70
2022/10/22 07:23:41;;;;;;;0.90;0.90;;;5.50;99.90;;;;;;5053597;28;20660;-70
2022/10/22 07:26:08;;;;;;;0.47;0.47;;;5.40;99.90;;;;;;5054756;28;20339;-70
2022/10/22 07:28:36;;;;;;;0.55;0.55;;;5.40;99.90;;;;;;5053447;28;20664;-71
2022/10/22 07:31:10;;;;;;;0.60;0.60;;;5.50;99.90;;;;;;5055094;28;20185;-71
2022/10/22 07:33:35;;;;;;;0.60;0.60;;;5.50;99.90;;;;;;5042440;28;20210;-72
2022/10/22 07:36:04;;;;;;;0.70;0.70;;;5.50;99.90;;;;;;5040045;28;20560;-70
2022/10/22 07:38:30;;;;;;;0.60;0.60;;;5.40;99.90;;;;;;5053152;28;20201;-72
2022/10/22 07:40:56;;;;;;;0.85;0.85;;;5.40;99.90;;;;;;5054547;28;20588;-70
2022/10/22 07:43:22;;;;;;;0.70;0.70;;;5.40;99.90;;;;;;5054349;28;20243;-69
2022/10/22 07:45:51;;;;;;;0.52;0.52;;;5.40;99.90;;;;;;5054754;28;20201;-70
2022/10/22 07:48:17;;;;;;;0.50;0.50;;;5.40;99.90;;;;;;5053466;28;20683;-70
2022/10/22 07:50:43;;;;;;;0.50;0.50;;;5.50;99.90;;;;;;5053292;28;20199;-70
2022/10/22 07:53:09;;;;;;;0.60;0.60;;;5.50;99.90;;;;;;5054553;28;20284;-70
2022/10/22 07:55:35;;;;;;;0.60;0.60;;;5.50;99.90;;;;;;5054137;28;20193;-69
2022/10/22 07:58:01;;;;;;;0.50;0.50;;;5.50;99.90;;;;;;5054425;28;20664;-70
2022/10/22 08:00:26;;;;;;;0.55;0.55;;;5.50;99.90;;;;;;5054373;28;20186;-70
2022/10/22 08:02:52;;;;;;;5.18;2.03;;;5.60;99.90;;;;;;5052129;28;20205;-69
2022/10/22 08:05:18;;;;;;;0.60;0.60;;;5.60;99.90;;;;;;5053852;28;20240;-69
2022/10/22 08:07:43;;;;;;;0.70;0.70;;;5.70;99.90;;;;;;5052523;28;20202;-70
2022/10/22 08:10:10;;;;;;;0.65;0.65;;;5.70;99.90;;;;;;5052585;28;20272;-70
2022/10/22 08:12:36;;;;;;;0.60;0.60;;;5.80;99.90;;;;;;5051456;28;20205;-71
2022/10/22 08:15:03;;;;;;;0.50;0.50;;;5.80;99.90;;;;;;5052857;28;20570;-71
2022/10/22 08:17:28;;;;;;;0.57;0.57;;;5.80;99.90;;;;;;5051695;28;20198;-72
2022/10/22 08:19:54;;;;;;;0.75;0.75;;;5.90;99.90;;;;;;5054372;28;20528;-71
2022/10/22 08:22:20;;;;;;;1.00;0.93;;;5.90;99.90;;;;;;5052328;28;20289;-70
2022/10/22 08:24:45;;;;;;;0.80;0.80;;;5.90;99.90;;;;;;5053869;28;20193;-71
2022/10/22 08:27:11;;;;;;;0.50;0.50;;;6.00;99.90;;;;;;5053671;28;20197;-70
2022/10/22 08:29:37;;;;;;;0.60;0.60;;;6.00;99.90;;;;;;5053626;28;20221;-71
2022/10/22 08:32:02;;;;;;;0.60;0.60;;;6.10;99.90;;;;;;5052437;28;20194;-69
2022/10/22 08:34:29;;;;;;;0.60;0.60;;;6.10;99.90;;;;;;5052677;28;20574;-70
2022/10/22 08:36:54;;;;;;;0.50;0.50;;;6.10;99.90;;;;;;5051709;28;20703;-71
2022/10/22 08:39:23;;;;;;;0.65;0.65;;;6.10;99.90;;;;;;5053211;28;20198;-70
2022/10/22 08:42:00;;;;;;;0.60;0.60;;;6.10;99.90;;;;;;5053476;28;20237;-70
2022/10/22 08:44:38;;;;;;;0.70;0.70;;;6.10;99.90;;;;;;5053344;28;20635;-70
2022/10/22 08:47:12;;;;;;;0.55;0.55;;;6.20;99.90;;;;;;5053164;28;20197;-70
2022/10/22 08:49:41;;;;;;;0.65;0.65;;;6.20;99.90;;;;;;5052002;28;20197;-69
2022/10/22 08:52:17;;;;;;;0.70;0.70;;;6.20;99.90;;;;;;5053180;28;20560;-69
2022/10/22 08:54:50;;;;;;;0.70;0.70;;;6.30;99.90;;;;;;5052753;28;20227;-70
2022/10/22 08:57:45;;;;;;;0.70;0.70;;;6.30;99.90;;;;;;5051884;28;20193;-70
2022/10/22 09:00:52;;;;;;;0.55;0.55;;;6.30;99.90;;;;;;5052624;28;20198;-69
2022/10/22 09:03:49;;;;;;;1.42;1.33;;;6.30;99.90;;;;;;4969360;28;20293;-68
2022/10/22 09:06:57;;;;;;;0.50;0.50;;;6.40;99.90;;;;;;4991539;28;20565;-71
2022/10/22 09:09:49;;;;;;;0.60;0.60;;;6.40;99.90;;;;;;4932439;29;20265;-70
2022/10/22 09:15:57;;;;;;;0.60;0.60;;;6.50;99.90;;;;;;4925386;29;20245;-69
2022/10/22 09:18:46;;;;;;;5.30;4.22;;;6.60;99.90;;;;;;4932689;29;20745;-70
2022/10/22 09:21:14;;;;;;;0.55;0.55;;;6.60;99.90;;;;;;4934056;29;20588;-69
2022/10/22 09:23:54;;;;;;;0.73;0.73;;;6.60;99.90;;;;;;4932905;29;20581;-69
2022/10/22 09:26:20;;;;;;;2.75;2.35;;;6.60;99.90;;;;;;4932720;29;20236;-70
2022/10/22 09:28:50;;;;;;;2.92;2.65;;;6.70;99.90;;;;;;4933481;29;20229;-69
2022/10/22 09:31:16;;;;;;;3.40;3.10;;;6.70;99.90;;;;;;4933619;29;20201;-69
2022/10/22 09:34:22;;;;;;;2.35;1.45;;;6.70;99.90;;;;;;4915957;29;20240;-69
2022/10/22 09:37:05;;;;;;;8.55;2.70;;;6.80;99.90;;;;;;4917675;29;20260;-69
2022/10/22 09:39:32;;;;;;;1.15;1.05;;;6.70;99.90;;;;;;4947081;28;20210;-70
2022/10/22 09:42:01;;;;;;;0.68;0.68;;;6.70;99.90;;;;;;4990945;28;20797;-70
2022/10/22 09:44:26;;;;;;;0.70;0.70;;;6.70;99.90;;;;;;4990880;28;20246;-70
2022/10/22 09:46:52;;;;;;;0.88;0.80;;;6.70;99.90;;;;;;5035811;28;20308;-70
2022/10/22 09:49:21;;;;;;;0.60;0.60;;;6.70;99.90;;;;;;5051722;28;20205;-71
2022/10/22 09:51:49;;;;;;;1.33;1.23;;;6.70;99.90;;;;;;5051427;28;20201;-70
2022/10/22 09:54:31;;;;;;;0.75;0.75;;;6.70;99.90;;;;;;5052145;28;20251;-70
2022/10/22 09:57:20;;;;;;;0.55;0.55;;;6.80;99.90;;;;;;5052407;28;20200;-69
2022/10/22 09:59:50;;;;;;;1.35;1.27;;;6.70;99.90;;;;;;5059984;28;20189;-70
2022/10/22 10:02:22;;;;;;;0.68;0.68;;;6.70;99.90;;;;;;5051018;28;20213;-70
2022/10/22 10:04:51;;;;;;;1.25;1.17;;;6.70;99.90;;;;;;5051718;28;20289;-70
2022/10/22 10:07:19;;;;;;;2.22;2.05;;;6.80;99.90;;;;;;5051928;28;20262;-70
2022/10/22 10:09:45;;;;;;;0.73;0.73;;;6.70;99.90;;;;;;5050790;28;20194;-69
2022/10/22 10:12:51;;;;;;;1.00;1.00;;;6.80;99.90;;;;;;5051664;28;20200;-69
2022/10/22 10:15:28;;;;;;;95.30;13.65;;;6.70;99.90;;;;;;5052451;28;20197;-70
2022/10/22 10:18:26;;;;;;;0.85;0.82;;;6.80;99.90;;;;;;5052325;28;20197;-70
2022/10/22 10:21:25;;;;;;;0.90;0.90;;;6.80;99.90;;;;;;5032276;28;20194;-70
2022/10/22 10:24:02;;;;;;;7.38;1.33;;;6.80;99.90;;;;;;5032474;28;20198;-70
2022/10/22 10:26:51;;;;;;;0.70;0.70;;;6.80;99.90;;;;;;5032075;28;20201;-70
2022/10/22 10:29:46;;;;;;;1.38;1.27;;;6.80;99.90;;;;;;5044853;28;20210;-71
2022/10/22 10:32:26;;;;;;;0.80;0.80;;;6.90;99.90;;;;;;5051122;28;20201;-70
2022/10/22 10:35:15;;;;;;;0.85;0.85;;;7.00;99.90;;;;;;5051209;28;20213;-71
2022/10/22 10:37:57;;;;;;;0.70;0.70;;;7.10;99.90;;;;;;5054126;28;20247;-71
2022/10/22 10:40:33;;;;;;;0.95;0.95;;;7.20;99.90;;;;;;5055458;28;20224;-70
2022/10/22 10:43:27;;;;;;;0.85;0.85;;;7.20;99.90;;;;;;5052305;28;20262;-71
2022/10/22 10:46:27;;;;;;;0.80;0.80;;;7.30;99.90;;;;;;5018312;28;20234;-70
2022/10/22 10:49:07;;;;;;;0.90;0.90;;;7.40;99.90;;;;;;5038081;28;20767;-68
2022/10/22 10:51:49;;;;;;;0.60;0.60;;;7.40;99.90;;;;;;5055263;28;20205;-70
2022/10/22 10:54:45;;;;;;;0.70;0.70;;;7.40;99.90;;;;;;5055751;28;20201;-70
2022/10/22 10:57:45;;;;;;;0.65;0.65;;;7.40;99.90;;;;;;5054451;28;20189;-70
2022/10/22 11:00:16;;;;;;;0.60;0.60;;;7.40;99.90;;;;;;5055569;28;20209;-70
2022/10/22 11:03:20;;;;;;;0.70;0.70;;;7.40;99.90;;;;;;5054336;28;20240;-70
2022/10/22 11:05:56;;;;;;;1.35;1.25;;;7.50;99.90;;;;;;5054624;28;20271;-69
2022/10/22 11:08:57;;;;;;;0.60;0.57;;;7.60;99.90;;;;;;5055481;28;20676;-71
2022/10/22 11:11:30;;;;;;;0.50;0.50;;;7.60;99.90;;;;;;4993630;28;20203;-71
2022/10/22 11:14:33;;;;;;;0.60;0.60;;;7.70;99.90;;;;;;5058443;28;20221;-70
2022/10/22 11:17:11;;;;;;;0.88;0.85;;;7.80;99.90;;;;;;5054214;28;20292;-71
2022/10/22 11:19:51;;;;;;;0.80;0.80;;;7.80;99.90;;;;;;5053012;28;20197;-70
2022/10/22 11:22:37;;;;;;;0.52;0.52;;;7.90;99.90;;;;;;5054047;28;20197;-70
2022/10/22 11:25:12;;;;;;;0.95;0.95;;;7.80;99.90;;;;;;5054602;28;20201;-71
2022/10/22 11:27:56;;;;;;;0.90;0.90;;;7.80;99.90;;;;;;5054845;28;20193;-71
2022/10/22 11:30:24;;;;;;;0.50;0.50;;;7.70;99.90;;;;;;5054248;28;20668;-71
2022/10/22 11:32:57;;;;;;;0.90;0.90;;;7.50;99.90;;;;;;5054757;28;20212;-71
2022/10/22 11:35:36;;;;;;;0.60;0.60;;;7.50;99.90;;;;;;5052545;28;20250;-71
2022/10/22 11:38:05;;;;;;;0.60;0.60;;;7.40;99.90;;;;;;5054639;28;20564;-70
2022/10/22 11:40:58;;;;;;;0.70;0.70;;;7.40;99.90;;;;;;5054473;28;20232;-70
2022/10/22 11:43:28;;;;;;;0.70;0.70;;;7.30;99.90;;;;;;5049483;28;20198;-70
2022/10/22 11:46:08;;;;;;;0.80;0.80;;;7.30;99.90;;;;;;5034430;28;20610;-70
2022/10/22 11:48:36;;;;;;;1.25;1.15;;;7.40;99.90;;;;;;5049635;28;20255;-71
2022/10/22 11:51:03;;;;;;;0.52;0.52;;;7.40;99.90;;;;;;5052187;28;20224;-70
2022/10/22 11:53:34;;;;;;;0.82;0.82;;;7.50;99.90;;;;;;5054168;28;20216;-71
2022/10/22 11:56:05;;;;;;;0.70;0.70;;;7.60;99.90;;;;;;5054533;28;20671;-70
2022/10/22 11:58:46;;;;;;;1.10;1.10;;;7.60;99.90;;;;;;5053205;28;20190;-71
2022/10/22 12:01:12;;;;;;;0.82;0.82;;;7.60;99.90;;;;;;5054624;28;20611;-70
2022/10/22 12:03:43;;;;;;;0.70;0.70;;;7.70;99.90;;;;;;5053026;28;20291;-71
2022/10/22 12:06:11;;;;;;;1.85;1.17;;;7.80;99.90;;;;;;5053474;28;20204;-70
2022/10/22 12:08:50;;;;;;;1.20;1.05;;;7.90;99.90;;;;;;5052951;28;20209;-71
2022/10/22 12:11:27;;;;;;;1.25;1.05;;;7.90;99.90;;;;;;5053040;28;20217;-71
2022/10/22 12:14:18;;;;;;;1.52;1.42;;;8.00;99.90;;;;;;5054147;28;20212;-70
2022/10/22 12:16:51;;;;;;;1.90;1.77;;;8.00;99.90;;;;;;5054085;28;20605;-70
2022/10/22 12:19:28;;;;;;;1.52;1.42;;;8.10;99.90;;;;;;5054160;28;20309;-71
2022/10/22 12:22:06;;;;;;;0.57;0.57;;;8.20;99.90;;;;;;5049315;28;20293;-71
2022/10/22 12:24:37;;;;;;;1.45;1.35;;;8.10;99.90;;;;;;5038212;28;20610;-70
2022/10/22 12:27:02;;;;;;;1.08;1.00;;;8.10;99.90;;;;;;5054035;28;20682;-71
2022/10/22 12:29:30;;;;;;;1.35;1.25;;;8.20;99.90;;;;;;5052379;28;20284;-70
2022/10/22 12:32:01;;;;;;;1.10;1.08;;;8.20;99.90;;;;;;5052573;28;20211;-70
2022/10/22 12:34:28;;;;;;;1.08;1.05;;;8.10;99.90;;;;;;5053458;28;20207;-71
2022/10/22 12:36:54;;;;;;;0.70;0.70;;;8.10;99.90;;;;;;5053191;28;20186;-70
2022/10/22 12:39:24;;;;;;;0.93;0.93;;;8.10;99.90;;;;;;5053744;28;20200;-70
2022/10/22 12:41:51;;;;;;;0.80;0.80;;;8.20;99.90;;;;;;5053462;28;20205;-71
2022/10/22 12:44:17;;;;;;;1.30;0.88;;;8.20;99.90;;;;;;5052077;28;20684;-70
2022/10/22 12:46:46;;;;;;;1.17;1.17;;;8.20;99.90;;;;;;5053512;28;20201;-70
2022/10/22 12:49:20;;;;;;;0.60;0.60;;;8.20;99.90;;;;;;5053627;28;20193;-71
2022/10/22 12:51:47;;;;;;;1.40;1.30;;;8.30;99.90;;;;;;5052565;28;20220;-71
2022/10/22 12:54:25;;;;;;;1.95;1.73;;;8.30;99.90;;;;;;5053595;28;20621;-71
2022/10/22 12:56:51;;;;;;;1.45;1.35;;;8.40;99.90;;;;;;5053477;28;20197;-70
2022/10/22 12:59:24;;;;;;;1.25;1.15;;;8.40;99.90;;;;;;5052896;28;20185;-70
2022/10/22 13:01:51;;;;;;;0.98;0.98;;;8.40;99.90;;;;;;5051986;28;20295;-71
2022/10/22 13:04:25;;;;;;;0.70;0.70;;;8.50;99.90;;;;;;5052111;28;20208;-70
2022/10/22 13:07:15;;;;;;;0.70;0.70;;;8.40;99.90;;;;;;5052386;28;20199;-70
2022/10/22 13:09:55;;;;;;;3.00;1.88;;;8.40;99.90;;;;;;5053170;28;20255;-70
2022/10/22 13:12:35;;;;;;;1.55;1.45;;;8.30;99.90;;;;;;5052937;28;20696;-72
2022/10/22 13:15:41;;;;;;;0.90;0.90;;;8.30;99.90;;;;;;5053337;28;20338;-71
2022/10/22 13:18:18;;;;;;;0.98;0.70;;;8.30;99.90;;;;;;5050780;28;20213;-71
2022/10/22 13:20:55;;;;;;;0.95;0.90;;;8.30;99.90;;;;;;5052179;28;20193;-72
2022/10/22 13:23:23;;;;;;;1.17;0.90;;;8.30;99.90;;;;;;5052975;28;20224;-71
2022/10/22 13:26:12;;;;;;;0.98;0.90;;;8.30;99.90;;;;;;5055005;28;20283;-70